Time;durP1;ratioP1;P1;durP2;ratioP2;P2;SDS_P1;SDS_P2;PMS_P1;PMS_P2;Temp;Humidity;BMP_temperature;BMP_pressure;BME280_temperature;BME280_humidity;BME280_pressure;Samples;Min_cycle;Max_cycle;Signal;HPM_P1;HPM_P2
2023/10/09 00:03:06;;;;;;;46.65;23.50;;;;;;;;;;5067643;27;99469;-72
2023/10/09 00:05:46;;;;;;;48.80;22.52;;;;;;;;;;5067370;27;100594;-71
2023/10/09 00:08:32;;;;;;;53.65;22.65;;;;;;;;;;5067509;27;98139;-72
2023/10/09 00:11:13;;;;;;;39.38;22.02;;;;;;;;;;5066852;27;99460;-71
2023/10/09 00:13:48;;;;;;;43.35;22.77;;;;;;;;;;5070331;27;99746;-72
2023/10/09 00:16:16;;;;;;;40.95;21.05;;;;;;;;;;5051989;27;100037;-71
2023/10/09 00:18:46;;;;;;;49.20;22.90;;;;;;;;;;5046532;27;100225;-71
2023/10/09 00:21:20;;;;;;;40.53;20.98;;;;;;;;;;5064423;27;98217;-71
2023/10/09 00:23:55;;;;;;;45.85;20.63;;;;;;;;;;5059871;27;98551;-71
2023/10/09 00:26:22;;;;;;;41.70;21.90;;;;;;;;;;5057790;27;99896;-72
2023/10/09 00:28:51;;;;;;;55.47;22.00;;;;;;;;;;5067652;27;98243;-71
2023/10/09 00:31:30;;;;;;;37.55;20.95;;;;;;;;;;5061272;27;99566;-72
2023/10/09 00:34:01;;;;;;;38.40;20.05;;;;;;;;;;5050032;27;99911;-71
2023/10/09 00:36:28;;;;;;;43.63;21.60;;;;;;;;;;5046562;27;98585;-72
2023/10/09 00:38:55;;;;;;;45.92;20.00;;;;;;;;;;5059070;27;99022;-72
2023/10/09 00:41:24;;;;;;;37.20;19.95;;;;;;;;;;5050446;27;98256;-72
2023/10/09 00:43:52;;;;;;;38.30;21.20;;;;;;;;;;5065252;27;99221;-71
2023/10/09 00:48:48;;;;;;;37.47;19.23;;;;;;;;;;5060213;27;99810;-71
2023/10/09 00:51:18;;;;;;;40.70;19.60;;;;;;;;;;5056048;27;101159;-71
2023/10/09 00:53:50;;;;;;;42.30;19.83;;;;;;;;;;5051874;27;99114;-72
2023/10/09 00:59:00;;;;;;;35.78;20.00;;;;;;;;;;5057171;27;100271;-70
2023/10/09 01:01:38;;;;;;;38.20;20.55;;;;;;;;;;5057851;27;98367;-70
2023/10/09 01:04:06;;;;;;;34.00;18.30;;;;;;;;;;5056383;27;99098;-70
2023/10/09 01:06:33;;;;;;;28.48;16.40;;;;;;;;;;5062534;27;100030;-73
2023/10/09 01:09:09;;;;;;;28.55;16.50;;;;;;;;;;5052967;27;100966;-71
2023/10/09 01:11:47;;;;;;;35.50;17.65;;;;;;;;;;5056301;27;99571;-71
2023/10/09 01:14:14;;;;;;;28.23;15.55;;;;;;;;;;5064715;27;101020;-72
2023/10/09 01:16:46;;;;;;;29.48;17.20;;;;;;;;;;5054593;27;101008;-71
2023/10/09 01:19:19;;;;;;;26.10;14.57;;;;;;;;;;5058093;27;100849;-72
2023/10/09 01:21:46;;;;;;;23.60;15.93;;;;;;;;;;5063499;27;99367;-71
2023/10/09 01:24:16;;;;;;;29.70;15.68;;;;;;;;;;5060440;27;99224;-71
2023/10/09 01:26:49;;;;;;;26.63;15.20;;;;;;;;;;5055804;27;99536;-71
2023/10/09 01:29:20;;;;;;;29.67;15.93;;;;;;;;;;5058118;27;99311;-71
2023/10/09 01:31:56;;;;;;;27.33;15.32;;;;;;;;;;5058685;27;99555;-71
2023/10/09 01:34:49;;;;;;;35.40;15.77;;;;;;;;;;5055381;27;99790;-71
2023/10/09 01:37:25;;;;;;;27.17;15.23;;;;;;;;;;5058352;27;99543;-71
2023/10/09 01:39:53;;;;;;;24.33;14.18;;;;;;;;;;5059631;27;99804;-70
2023/10/09 01:45:08;;;;;;;31.60;15.15;;;;;;;;;;5062279;27;99733;-72
2023/10/09 01:47:37;;;;;;;28.55;15.45;;;;;;;;;;5056944;27;100203;-71
2023/10/09 01:50:05;;;;;;;34.85;14.65;;;;;;;;;;5054314;27;98789;-72
2023/10/09 01:52:31;;;;;;;29.17;15.07;;;;;;;;;;5058520;27;98643;-71
2023/10/09 01:55:09;;;;;;;27.80;15.88;;;;;;;;;;5057405;27;100315;-71
2023/10/09 01:57:39;;;;;;;31.33;14.07;;;;;;;;;;5059546;27;98196;-71
2023/10/09 02:00:07;;;;;;;28.50;15.82;;;;;;;;;;5057882;27;100895;-71
2023/10/09 02:02:37;;;;;;;31.42;15.75;;;;;;;;;;5054559;27;100088;-71
2023/10/09 02:07:40;;;;;;;29.83;17.73;;;;;;;;;;5060577;27;99629;-71
2023/10/09 02:10:21;;;;;;;29.10;15.80;;;;;;;;;;5057326;27;100015;-72
2023/10/09 02:13:06;;;;;;;25.65;16.02;;;;;;;;;;5056322;27;98506;-72
2023/10/09 02:23:51;;;;;;;34.38;17.65;;;;;;;;;;5069476;27;99118;-72
2023/10/09 02:26:39;;;;;;;28.58;16.83;;;;;;;;;;5067744;27;98246;-72
2023/10/09 02:29:20;;;;;;;29.00;16.42;;;;;;;;;;5071411;27;99505;-71
2023/10/09 02:31:51;;;;;;;30.67;17.92;;;;;;;;;;5104055;27;98254;-71
2023/10/09 02:34:27;;;;;;;35.90;18.63;;;;;;;;;;5072189;27;98104;-71
2023/10/09 02:37:05;;;;;;;32.33;16.67;;;;;;;;;;5082377;27;102066;-73
2023/10/09 02:39:47;;;;;;;31.67;16.90;;;;;;;;;;5087942;27;98324;-71
2023/10/09 02:44:46;;;;;;;31.63;16.48;;;;;;;;;;5089158;27;98881;-72
2023/10/09 02:47:20;;;;;;;28.58;16.77;;;;;;;;;;5089447;27;98094;-71
2023/10/09 02:49:48;;;;;;;30.85;16.45;;;;;;;;;;5070939;27;98415;-71
2023/10/09 02:52:18;;;;;;;26.50;15.48;;;;;;;;;;5057585;27;98332;-71
2023/10/09 02:54:47;;;;;;;26.27;16.08;;;;;;;;;;5058011;27;100669;-72
2023/10/09 02:57:22;;;;;;;29.17;16.40;;;;;;;;;;5060202;27;99125;-71
2023/10/09 02:59:51;;;;;;;29.65;16.15;;;;;;;;;;5067496;27;98191;-72
2023/10/09 03:02:18;;;;;;;27.50;15.35;;;;;;;;;;5058665;27;98350;-72
2023/10/09 03:04:45;;;;;;;24.17;15.27;;;;;;;;;;5058674;27;99363;-71
2023/10/09 03:07:13;;;;;;;28.45;15.73;;;;;;;;;;5062535;27;98816;-71
2023/10/09 03:09:40;;;;;;;31.38;15.15;;;;;;;;;;5057587;27;100143;-71
2023/10/09 03:12:12;;;;;;;28.33;15.90;;;;;;;;;;5057409;27;101784;-71
2023/10/09 03:14:41;;;;;;;24.88;15.07;;;;;;;;;;5055567;27;99219;-71
2023/10/09 03:17:13;;;;;;;24.23;14.68;;;;;;;;;;5057795;27;101637;-72
2023/10/09 03:19:43;;;;;;;30.48;14.95;;;;;;;;;;5056629;27;99798;-71
2023/10/09 03:22:10;;;;;;;25.92;14.48;;;;;;;;;;5058361;27;100337;-71
2023/10/09 03:24:38;;;;;;;27.33;15.00;;;;;;;;;;5056687;27;100273;-71
2023/10/09 03:27:05;;;;;;;29.33;15.60;;;;;;;;;;5057724;27;99104;-72
2023/10/09 03:29:33;;;;;;;27.17;15.50;;;;;;;;;;5067364;27;98879;-71
2023/10/09 03:32:00;;;;;;;31.55;15.10;;;;;;;;;;5064575;27;100151;-71
2023/10/09 03:34:27;;;;;;;25.85;14.88;;;;;;;;;;5056022;27;98203;-72
2023/10/09 03:37:20;;;;;;;23.25;14.18;;;;;;;;;;5057017;27;100036;-72
2023/10/09 03:39:47;;;;;;;19.50;13.38;;;;;;;;;;5054412;27;99575;-71
2023/10/09 03:42:19;;;;;;;25.90;14.70;;;;;;;;;;5055657;27;99149;-71
2023/10/09 03:44:52;;;;;;;;;;;;;;;;;;5053035;27;100080;-70
2023/10/09 03:47:22;;;;;;;19.87;12.90;;;;;;;;;;5053886;27;99155;-71
2023/10/09 03:49:51;;;;;;;22.75;12.40;;;;;;;;;;5051599;27;100098;-70
2023/10/09 03:52:19;;;;;;;19.02;12.20;;;;;;;;;;5056711;27;99375;-71
2023/10/09 03:54:49;;;;;;;19.48;12.27;;;;;;;;;;5055730;27;99948;-71
2023/10/09 03:57:19;;;;;;;22.55;11.80;;;;;;;;;;5052661;27;99832;-71
2023/10/09 03:59:46;;;;;;;19.67;11.38;;;;;;;;;;5051452;27;99755;-72
2023/10/09 04:02:13;;;;;;;17.77;11.85;;;;;;;;;;5067035;27;100459;-72
2023/10/09 04:04:45;;;;;;;18.15;11.80;;;;;;;;;;5051375;27;99947;-72
2023/10/09 04:07:12;;;;;;;16.50;10.55;;;;;;;;;;5062111;27;98246;-71
2023/10/09 04:09:44;;;;;;;19.17;10.35;;;;;;;;;;5054258;27;100316;-71
2023/10/09 04:14:47;;;;;;;15.18;8.80;;;;;;;;;;5056415;27;98511;-72
2023/10/09 04:20:25;;;;;;;12.98;8.23;;;;;;;;;;5064620;27;99040;-71
2023/10/09 04:22:42;;;;;;;16.90;9.57;;;;;;;;;;5060707;27;99963;-71
2023/10/09 04:25:14;;;;;;;14.93;8.80;;;;;;;;;;5054421;27;99107;-70
2023/10/09 04:27:41;;;;;;;12.98;8.50;;;;;;;;;;5051208;27;98693;-73
2023/10/09 04:30:07;;;;;;;15.63;8.95;;;;;;;;;;5050471;27;99445;-71
2023/10/09 04:32:34;;;;;;;20.25;9.65;;;;;;;;;;5045868;27;99915;-71
2023/10/09 04:37:52;;;;;;;22.20;8.38;;;;;;;;;;5054542;27;99855;-71
2023/10/09 04:40:41;;;;;;;19.27;8.63;;;;;;;;;;5059454;27;99764;-71
2023/10/09 04:43:09;;;;;;;14.73;8.68;;;;;;;;;;5058371;27;99723;-71
2023/10/09 04:46:06;;;;;;;17.63;7.80;;;;;;;;;;5057958;27;99836;-72
2023/10/09 04:48:37;;;;;;;10.67;7.83;;;;;;;;;;5061541;27;98788;-72
2023/10/09 04:51:20;;;;;;;16.17;8.20;;;;;;;;;;5060838;27;99474;-70
2023/10/09 04:53:59;;;;;;;15.57;8.02;;;;;;;;;;5056926;27;99968;-71
2023/10/09 04:56:31;;;;;;;17.90;7.80;;;;;;;;;;5063291;27;98280;-72
2023/10/09 04:59:03;;;;;;;19.33;7.97;;;;;;;;;;5061211;27;99813;-72
2023/10/09 05:01:36;;;;;;;13.23;7.57;;;;;;;;;;5069180;27;98944;-71
2023/10/09 05:04:15;;;;;;;12.77;7.28;;;;;;;;;;5061275;27;98672;-71
2023/10/09 05:06:55;;;;;;;14.35;8.02;;;;;;;;;;5063128;27;99408;-71
2023/10/09 05:09:22;;;;;;;14.38;7.30;;;;;;;;;;5058292;27;99179;-73
2023/10/09 05:14:27;;;;;;;11.68;6.80;;;;;;;;;;5056078;27;99443;-72
2023/10/09 05:16:54;;;;;;;10.75;7.15;;;;;;;;;;5059277;27;100217;-70
2023/10/09 05:19:41;;;;;;;11.88;7.85;;;;;;;;;;5060617;27;100477;-72
2023/10/09 05:22:16;;;;;;;13.13;6.55;;;;;;;;;;5060812;27;99544;-71
2023/10/09 05:24:47;;;;;;;11.68;6.55;;;;;;;;;;5058902;27;98261;-71
2023/10/09 05:27:24;;;;;;;12.32;7.32;;;;;;;;;;5053039;27;100154;-71
2023/10/09 05:30:12;;;;;;;15.40;7.97;;;;;;;;;;5059924;27;99831;-71
2023/10/09 05:32:48;;;;;;;13.88;7.90;;;;;;;;;;5049428;27;99308;-72
2023/10/09 05:35:20;;;;;;;12.75;7.50;;;;;;;;;;5058455;27;98819;-72
2023/10/09 05:37:46;;;;;;;11.27;7.10;;;;;;;;;;5055058;27;99091;-71
2023/10/09 05:42:42;;;;;;;12.18;7.57;;;;;;;;;;5064015;27;100223;-72
2023/10/09 05:51:10;;;;;;;14.52;7.35;;;;;;;;;;5032961;27;98943;-71
2023/10/09 05:54:11;;;;;;;13.35;7.78;;;;;;;;;;5051418;27;98226;-71
2023/10/09 06:04:17;;;;;;;12.38;6.28;;;;;;;;;;5051698;27;98940;-72
2023/10/09 06:06:45;;;;;;;17.65;7.45;;;;;;;;;;5060340;27;98375;-73
2023/10/09 06:11:49;;;;;;;9.52;6.15;;;;;;;;;;5048452;27;101304;-72
2023/10/09 06:14:25;;;;;;;13.65;7.28;;;;;;;;;;5049371;27;100154;-72
2023/10/09 06:19:43;;;;;;;12.00;6.47;;;;;;;;;;5052463;27;98962;-75
2023/10/09 06:22:46;;;;;;;11.20;7.10;;;;;;;;;;5048612;27;101075;-72
2023/10/09 06:25:09;;;;;;;9.20;6.65;;;;;;;;;;5050407;27;99734;-74
2023/10/09 06:33:29;;;;;;;20.08;7.20;;;;;;;;;;5006824;28;99045;-72
2023/10/09 06:36:06;;;;;;;11.27;6.07;;;;;;;;;;5005649;28;98305;-73
2023/10/09 06:39:50;;;;;;;17.30;6.68;;;;;;;;;;5037738;27;99525;-72
2023/10/09 06:41:37;;;;;;;12.75;6.97;;;;;;;;;;5048295;27;98129;-72
2023/10/09 06:44:06;;;;;;;9.70;6.30;;;;;;;;;;5048111;27;99223;-72
2023/10/09 06:46:43;;;;;;;12.30;6.43;;;;;;;;;;5045972;27;100013;-71
2023/10/09 06:49:29;;;;;;;15.98;6.28;;;;;;;;;;5048634;27;98750;-71
2023/10/09 06:51:58;;;;;;;11.00;6.35;;;;;;;;;;5057347;27;98771;-71
2023/10/09 06:54:29;;;;;;;14.60;6.65;;;;;;;;;;5047812;27;100018;-72
2023/10/09 06:59:24;;;;;;;18.17;6.88;;;;;;;;;;5046951;27;99464;-71
2023/10/09 07:07:01;;;;;;;10.82;6.07;;;;;;;;;;5050219;27;99057;-71
2023/10/09 07:10:28;;;;;;;13.38;6.70;;;;;;;;;;5050226;27;98243;-72
2023/10/09 07:12:32;;;;;;;13.27;5.85;;;;;;;;;;5050920;27;98885;-72
2023/10/09 07:16:23;;;;;;;9.95;6.00;;;;;;;;;;5080791;27;99765;-73
2023/10/09 07:17:52;;;;;;;13.25;5.88;;;;;;;;;;5091203;27;98310;-72
2023/10/09 07:20:37;;;;;;;31.02;10.18;;;;;;;;;;5085778;27;99517;-71
2023/10/09 07:23:17;;;;;;;11.50;5.80;;;;;;;;;;5089269;27;99028;-72
2023/10/09 07:25:54;;;;;;;13.63;6.20;;;;;;;;;;5091802;27;97969;-74
2023/10/09 07:28:42;;;;;;;8.40;5.88;;;;;;;;;;5063535;27;98812;-72
2023/10/09 07:31:23;;;;;;;11.07;6.38;;;;;;;;;;5048059;27;98102;-72
2023/10/09 07:33:56;;;;;;;13.70;7.33;;;;;;;;;;5049045;27;98902;-72
2023/10/09 07:36:37;;;;;;;10.68;6.78;;;;;;;;;;5047523;27;100004;-71
2023/10/09 07:39:13;;;;;;;7.32;6.00;;;;;;;;;;5047283;27;98443;-73
2023/10/09 07:41:45;;;;;;;12.68;6.47;;;;;;;;;;5050896;27;98768;-72
2023/10/09 07:44:34;;;;;;;13.50;6.40;;;;;;;;;;5067475;27;98765;-73
2023/10/09 07:49:53;;;;;;;7.88;6.00;;;;;;;;;;5071336;27;99410;-73
2023/10/09 07:52:21;;;;;;;7.20;5.65;;;;;;;;;;5060156;27;98089;-73
2023/10/09 07:54:53;;;;;;;16.67;6.40;;;;;;;;;;5046857;27;98931;-72
2023/10/09 07:57:25;;;;;;;13.98;6.00;;;;;;;;;;5047245;27;98931;-73
2023/10/09 08:00:00;;;;;;;11.32;6.47;;;;;;;;;;5047461;27;98254;-72
2023/10/09 08:02:38;;;;;;;15.23;6.80;;;;;;;;;;5044673;27;99882;-72
2023/10/09 08:05:07;;;;;;;11.52;6.80;;;;;;;;;;5046611;27;99891;-71
2023/10/09 08:07:36;;;;;;;18.52;6.80;;;;;;;;;;5056134;27;99426;-74
2023/10/09 08:17:53;;;;;;;8.50;5.18;;;;;;;;;;5049736;27;99607;-72
2023/10/09 08:20:26;;;;;;;12.25;5.35;;;;;;;;;;5051161;27;98249;-72
2023/10/09 08:22:55;;;;;;;16.33;6.82;;;;;;;;;;5060886;27;98441;-72
2023/10/09 08:25:50;;;;;;;13.18;6.07;;;;;;;;;;5071100;27;99185;-71
2023/10/09 08:31:02;;;;;;;12.00;5.57;;;;;;;;;;5049133;27;98946;-72
2023/10/09 08:33:42;;;;;;;13.95;5.72;;;;;;;;;;5049603;27;98776;-72
2023/10/09 08:36:14;;;;;;;7.30;5.25;;;;;;;;;;5054026;27;98089;-72
2023/10/09 08:38:41;;;;;;;9.20;6.10;;;;;;;;;;5049427;27;99064;-72
2023/10/09 08:41:17;;;;;;;15.05;6.30;;;;;;;;;;5050778;27;98322;-72
2023/10/09 08:43:47;;;;;;;12.18;5.57;;;;;;;;;;5050138;27;98694;-71
2023/10/09 08:46:18;;;;;;;8.30;5.43;;;;;;;;;;5050216;27;98985;-73
2023/10/09 08:48:45;;;;;;;13.50;5.72;;;;;;;;;;5050763;27;98648;-73
2023/10/09 08:51:14;;;;;;;10.15;5.53;;;;;;;;;;5049614;27;99733;-71
2023/10/09 08:53:42;;;;;;;10.48;6.43;;;;;;;;;;5049903;27;99972;-71
2023/10/09 08:56:10;;;;;;;13.88;6.25;;;;;;;;;;5053070;27;98215;-70
2023/10/09 08:58:38;;;;;;;13.43;6.30;;;;;;;;;;5068672;27;100069;-72
2023/10/09 09:01:04;;;;;;;10.10;5.57;;;;;;;;;;5070676;27;98234;-71
2023/10/09 09:03:38;;;;;;;12.13;5.43;;;;;;;;;;5070698;27;98795;-72
2023/10/09 09:06:04;;;;;;;11.00;6.30;;;;;;;;;;5069830;27;99865;-72
2023/10/09 09:08:36;;;;;;;17.88;6.10;;;;;;;;;;5070600;27;98275;-72
2023/10/09 09:11:11;;;;;;;10.27;5.40;;;;;;;;;;5070121;27;99049;-72
2023/10/09 09:13:41;;;;;;;14.73;5.80;;;;;;;;;;5059626;27;99047;-72
2023/10/09 09:16:18;;;;;;;11.05;5.93;;;;;;;;;;5050075;27;98099;-72
2023/10/09 09:18:56;;;;;;;11.60;5.47;;;;;;;;;;5052535;27;99565;-73
2023/10/09 09:21:22;;;;;;;8.68;5.55;;;;;;;;;;5048433;27;98794;-73
2023/10/09 09:24:01;;;;;;;13.85;5.25;;;;;;;;;;5049890;27;98737;-73
2023/10/09 09:26:44;;;;;;;13.18;5.32;;;;;;;;;;5049168;27;99592;-73
2023/10/09 09:29:17;;;;;;;12.13;5.53;;;;;;;;;;5049911;27;98832;-72
2023/10/09 09:32:20;;;;;;;13.68;5.38;;;;;;;;;;5049887;27;98428;-72
2023/10/09 09:34:49;;;;;;;15.40;5.60;;;;;;;;;;5048964;27;100310;-74
2023/10/09 09:37:33;;;;;;;14.77;5.22;;;;;;;;;;5054392;27;98753;-73
2023/10/09 09:40:01;;;;;;;13.25;5.35;;;;;;;;;;5069024;27;98614;-73
2023/10/09 09:42:31;;;;;;;13.90;5.72;;;;;;;;;;5072279;27;99149;-72
2023/10/09 09:45:00;;;;;;;13.82;5.82;;;;;;;;;;5069921;27;99485;-73
2023/10/09 09:47:26;;;;;;;14.77;6.55;;;;;;;;;;5067352;27;99005;-73
2023/10/09 09:50:01;;;;;;;9.02;5.20;;;;;;;;;;5070121;27;98223;-73
2023/10/09 09:52:40;;;;;;;13.45;6.13;;;;;;;;;;5069630;27;98848;-73
2023/10/09 09:55:14;;;;;;;12.75;5.18;;;;;;;;;;5068129;27;100020;-73
2023/10/09 09:57:41;;;;;;;11.10;4.90;;;;;;;;;;5070195;27;98799;-74
2023/10/09 10:00:26;;;;;;;15.32;5.13;;;;;;;;;;5070132;27;99170;-74
2023/10/09 10:02:56;;;;;;;8.25;5.25;;;;;;;;;;5068915;27;100141;-74
2023/10/09 10:05:27;;;;;;;14.35;5.20;;;;;;;;;;5072969;27;98228;-74
2023/10/09 10:07:55;;;;;;;18.98;5.70;;;;;;;;;;5069455;27;100156;-74
2023/10/09 10:10:47;;;;;;;11.10;5.28;;;;;;;;;;5069101;27;98297;-74
2023/10/09 10:13:15;;;;;;;8.77;4.40;;;;;;;;;;5068915;27;98669;-74
2023/10/09 10:15:58;;;;;;;10.68;5.32;;;;;;;;;;5068415;27;99911;-74
2023/10/09 10:18:24;;;;;;;10.02;4.70;;;;;;;;;;5069055;27;98283;-74
2023/10/09 10:21:16;;;;;;;15.32;5.05;;;;;;;;;;5066479;27;99021;-73
2023/10/09 10:23:47;;;;;;;8.70;4.70;;;;;;;;;;5046855;27;100796;-73
2023/10/09 10:26:18;;;;;;;17.88;5.13;;;;;;;;;;5048603;27;98143;-73
2023/10/09 10:29:07;;;;;;;9.80;4.68;;;;;;;;;;5051939;27;99676;-73
2023/10/09 10:31:51;;;;;;;9.60;5.65;;;;;;;;;;5048387;27;98432;-74
2023/10/09 10:34:23;;;;;;;10.35;4.63;;;;;;;;;;5047652;27;99917;-74
2023/10/09 10:36:58;;;;;;;10.93;3.93;;;;;;;;;;5048408;27;99765;-74
2023/10/09 10:39:42;;;;;;;13.55;4.65;;;;;;;;;;5047763;27;98253;-74
2023/10/09 10:42:13;;;;;;;7.35;5.10;;;;;;;;;;5048351;27;98676;-73
2023/10/09 10:44:44;;;;;;;9.98;4.82;;;;;;;;;;5047446;27;99763;-74
2023/10/09 10:47:22;;;;;;;7.47;5.20;;;;;;;;;;5048511;27;98127;-74
2023/10/09 10:49:50;;;;;;;8.88;4.28;;;;;;;;;;5048745;27;98409;-73
2023/10/09 10:52:20;;;;;;;11.23;5.38;;;;;;;;;;5050187;27;98233;-73
2023/10/09 10:55:05;;;;;;;12.80;4.65;;;;;;;;;;5048406;27;99615;-73
2023/10/09 10:57:53;;;;;;;8.73;4.30;;;;;;;;;;5053951;27;98899;-72
2023/10/09 11:03:17;;;;;;;13.77;4.05;;;;;;;;;;5068894;27;99282;-75
2023/10/09 11:05:50;;;;;;;8.68;4.43;;;;;;;;;;5066931;27;98808;-77
2023/10/09 11:08:22;;;;;;;8.98;4.97;;;;;;;;;;5068922;27;98368;-74
2023/10/09 11:10:54;;;;;;;10.93;4.03;;;;;;;;;;5068739;27;99466;-75
2023/10/09 11:13:36;;;;;;;8.10;3.88;;;;;;;;;;5070768;27;99873;-75
2023/10/09 11:16:28;;;;;;;21.05;4.50;;;;;;;;;;5066936;27;98808;-74
2023/10/09 11:18:57;;;;;;;12.52;3.90;;;;;;;;;;5067661;27;99916;-74
2023/10/09 11:21:31;;;;;;;8.98;3.80;;;;;;;;;;5057773;27;100319;-73
2023/10/09 11:23:58;;;;;;;12.32;4.28;;;;;;;;;;5048040;27;99372;-74
2023/10/09 11:26:27;;;;;;;10.38;4.57;;;;;;;;;;5047326;27;99026;-73
2023/10/09 11:29:13;;;;;;;13.70;4.38;;;;;;;;;;5047811;27;98272;-73
2023/10/09 11:32:00;;;;;;;10.07;3.78;;;;;;;;;;5046817;27;98171;-75
2023/10/09 11:34:37;;;;;;;9.77;4.38;;;;;;;;;;5046149;27;99948;-74
2023/10/09 11:37:11;;;;;;;6.72;4.65;;;;;;;;;;5054066;27;98154;-74
2023/10/09 11:39:50;;;;;;;19.58;6.32;;;;;;;;;;5066721;27;99548;-73
2023/10/09 11:42:38;;;;;;;7.95;3.85;;;;;;;;;;5067745;27;98202;-75
2023/10/09 11:45:22;;;;;;;11.20;4.25;;;;;;;;;;5060814;27;98890;-74
2023/10/09 11:47:59;;;;;;;12.55;4.50;;;;;;;;;;5049814;27;98942;-74
2023/10/09 11:51:18;;;;;;;7.90;4.82;;;;;;;;;;5052860;27;98193;-73
2023/10/09 11:53:45;;;;;;;9.50;4.15;;;;;;;;;;5067030;27;98418;-73
2023/10/09 11:56:16;;;;;;;11.85;4.35;;;;;;;;;;5048714;27;100259;-74
2023/10/09 11:58:43;;;;;;;7.68;4.22;;;;;;;;;;5062472;27;98159;-74
2023/10/09 12:01:16;;;;;;;8.80;4.32;;;;;;;;;;5067428;27;98100;-73
2023/10/09 12:03:42;;;;;;;12.23;4.18;;;;;;;;;;5047415;27;98710;-75
2023/10/09 12:06:12;;;;;;;8.88;3.70;;;;;;;;;;5047597;27;98287;-74
2023/10/09 12:08:41;;;;;;;6.82;4.40;;;;;;;;;;5046431;27;100262;-73
2023/10/09 12:11:11;;;;;;;10.38;3.65;;;;;;;;;;5047069;27;98248;-74
2023/10/09 12:13:38;;;;;;;13.73;4.00;;;;;;;;;;5047035;27;99051;-74
2023/10/09 12:16:11;;;;;;;13.60;4.22;;;;;;;;;;5046706;27;98992;-74
2023/10/09 12:18:40;;;;;;;15.13;4.30;;;;;;;;;;5047102;27;98490;-74
2023/10/09 12:21:07;;;;;;;8.48;3.88;;;;;;;;;;5046850;27;98924;-73
2023/10/09 12:23:35;;;;;;;5.72;4.00;;;;;;;;;;5064313;27;98148;-73
2023/10/09 12:26:02;;;;;;;10.93;3.97;;;;;;;;;;5055842;27;99840;-74
2023/10/09 12:28:29;;;;;;;11.98;5.10;;;;;;;;;;5053060;27;100002;-73
2023/10/09 12:31:00;;;;;;;11.30;4.53;;;;;;;;;;5066832;27;98810;-73
2023/10/09 12:33:28;;;;;;;10.85;3.78;;;;;;;;;;5067013;27;99127;-73
2023/10/09 12:35:59;;;;;;;7.20;3.85;;;;;;;;;;5066485;27;99073;-73
2023/10/09 12:38:31;;;;;;;7.78;3.63;;;;;;;;;;5066273;27;98374;-73
2023/10/09 12:41:19;;;;;;;11.00;3.78;;;;;;;;;;5067781;27;98672;-73
2023/10/09 12:43:47;;;;;;;10.70;5.10;;;;;;;;;;5066340;27;99099;-73
2023/10/09 12:46:16;;;;;;;8.80;4.10;;;;;;;;;;5070463;27;98216;-74
2023/10/09 12:48:46;;;;;;;8.10;4.35;;;;;;;;;;5066215;27;99970;-74
2023/10/09 12:51:16;;;;;;;15.18;4.43;;;;;;;;;;5066172;27;98937;-74
2023/10/09 12:53:43;;;;;;;5.78;3.75;;;;;;;;;;5067257;27;99568;-74
2023/10/09 12:56:11;;;;;;;8.18;4.20;;;;;;;;;;5056626;27;99569;-74
2023/10/09 12:58:38;;;;;;;11.90;4.63;;;;;;;;;;5069908;27;98247;-74
2023/10/09 13:01:11;;;;;;;7.78;3.70;;;;;;;;;;5070907;27;98633;-74
2023/10/09 13:03:38;;;;;;;10.15;3.90;;;;;;;;;;5070302;27;100320;-74
2023/10/09 13:06:10;;;;;;;7.38;4.70;;;;;;;;;;5073270;27;98736;-74
2023/10/09 13:08:40;;;;;;;17.08;4.60;;;;;;;;;;5069892;27;100069;-74
2023/10/09 13:11:10;;;;;;;5.40;3.85;;;;;;;;;;5069958;27;98541;-74
2023/10/09 13:13:43;;;;;;;10.18;4.18;;;;;;;;;;5057241;27;99450;-75
2023/10/09 13:16:20;;;;;;;7.15;4.35;;;;;;;;;;5065275;27;99370;-73
2023/10/09 13:18:49;;;;;;;7.28;4.15;;;;;;;;;;5049279;27;98277;-74
2023/10/09 13:21:17;;;;;;;9.93;4.30;;;;;;;;;;5050320;27;99625;-73
2023/10/09 13:23:46;;;;;;;9.93;4.40;;;;;;;;;;5055640;27;100172;-73
2023/10/09 13:29:01;;;;;;;10.32;4.20;;;;;;;;;;5052430;27;98525;-73
2023/10/09 13:31:31;;;;;;;7.50;3.88;;;;;;;;;;5053662;27;99358;-72
2023/10/09 13:33:59;;;;;;;8.27;4.55;;;;;;;;;;5061794;27;99790;-73
2023/10/09 13:36:35;;;;;;;10.10;4.13;;;;;;;;;;5057322;27;100119;-73
2023/10/09 13:41:57;;;;;;;9.55;4.47;;;;;;;;;;5061973;27;99270;-74
2023/10/09 13:44:26;;;;;;;8.55;4.93;;;;;;;;;;5062171;27;99760;-74
2023/10/09 13:46:56;;;;;;;13.68;3.97;;;;;;;;;;5061893;27;98371;-74
2023/10/09 13:49:24;;;;;;;10.27;4.13;;;;;;;;;;5067669;27;99440;-73
2023/10/09 13:51:51;;;;;;;11.93;4.25;;;;;;;;;;5069067;27;99274;-70
2023/10/09 13:56:59;;;;;;;10.20;5.88;;;;;;;;;;5069571;27;99141;-71
2023/10/09 13:59:26;;;;;;;14.35;4.95;;;;;;;;;;5069495;27;98856;-71
2023/10/09 14:01:54;;;;;;;11.65;4.68;;;;;;;;;;5066947;27;98720;-71
2023/10/09 14:04:22;;;;;;;11.07;4.80;;;;;;;;;;5048965;27;98895;-71
2023/10/09 14:06:59;;;;;;;8.35;4.30;;;;;;;;;;5047960;27;99024;-72
2023/10/09 14:09:38;;;;;;;9.65;4.35;;;;;;;;;;5047719;27;99541;-71
2023/10/09 14:12:06;;;;;;;11.48;4.40;;;;;;;;;;5049299;27;99166;-71
2023/10/09 14:14:38;;;;;;;11.40;5.30;;;;;;;;;;5063827;27;98351;-70
2023/10/09 14:17:11;;;;;;;7.53;4.22;;;;;;;;;;5047868;27;99196;-72
2023/10/09 14:19:46;;;;;;;13.10;4.90;;;;;;;;;;5049014;27;98099;-70
2023/10/09 14:22:15;;;;;;;12.80;4.95;;;;;;;;;;5056953;27;99412;-71
2023/10/09 14:24:46;;;;;;;11.85;4.60;;;;;;;;;;5054867;27;100064;-71
2023/10/09 14:27:19;;;;;;;8.30;5.00;;;;;;;;;;5066198;27;99106;-71
2023/10/09 14:29:48;;;;;;;8.65;4.70;;;;;;;;;;5056284;27;98623;-73
2023/10/09 14:32:15;;;;;;;21.98;5.45;;;;;;;;;;5062150;27;100086;-73
2023/10/09 14:34:46;;;;;;;13.23;4.82;;;;;;;;;;5056223;27;98610;-72
2023/10/09 14:37:14;;;;;;;15.13;5.15;;;;;;;;;;5058791;27;99744;-72
2023/10/09 14:39:42;;;;;;;12.38;4.95;;;;;;;;;;5056241;27;98237;-72
2023/10/09 14:42:09;;;;;;;15.73;4.70;;;;;;;;;;5055521;27;100163;-72
2023/10/09 14:44:40;;;;;;;14.95;5.28;;;;;;;;;;5054206;27;100235;-72
2023/10/09 14:47:07;;;;;;;15.10;6.30;;;;;;;;;;5057883;27;98236;-73
2023/10/09 14:49:37;;;;;;;24.80;8.73;;;;;;;;;;5061933;27;99475;-73
2023/10/09 14:52:08;;;;;;;13.50;4.70;;;;;;;;;;5056120;27;99059;-74
2023/10/09 14:54:35;;;;;;;15.85;5.40;;;;;;;;;;5066253;27;98282;-72
2023/10/09 14:57:05;;;;;;;12.02;5.03;;;;;;;;;;5068331;27;99530;-75
2023/10/09 14:59:33;;;;;;;9.13;5.15;;;;;;;;;;5060979;27;100203;-72
2023/10/09 15:02:00;;;;;;;16.15;5.78;;;;;;;;;;5058389;27;99684;-72
2023/10/09 15:04:26;;;;;;;22.60;6.35;;;;;;;;;;5050658;27;99868;-72
2023/10/09 15:06:53;;;;;;;13.18;5.28;;;;;;;;;;5059421;27;98229;-73
2023/10/09 15:09:22;;;;;;;16.95;5.75;;;;;;;;;;5065509;27;98710;-74
2023/10/09 15:11:49;;;;;;;16.63;6.65;;;;;;;;;;5067932;27;99171;-71
2023/10/09 15:14:18;;;;;;;12.15;5.78;;;;;;;;;;5049606;27;99529;-72
2023/10/09 15:16:46;;;;;;;8.02;4.78;;;;;;;;;;5064063;27;99549;-72
2023/10/09 15:19:13;;;;;;;9.50;4.68;;;;;;;;;;5067989;27;100267;-71
2023/10/09 15:21:46;;;;;;;11.65;5.72;;;;;;;;;;5068970;27;98912;-72
2023/10/09 15:24:15;;;;;;;6.65;5.35;;;;;;;;;;5051659;27;99909;-71
2023/10/09 15:26:52;;;;;;;12.00;5.10;;;;;;;;;;5057495;27;98717;-70
2023/10/09 15:29:23;;;;;;;20.10;4.82;;;;;;;;;;5048648;27;98839;-71
2023/10/09 15:31:52;;;;;;;15.80;5.45;;;;;;;;;;5046826;27;99047;-71
2023/10/09 15:34:20;;;;;;;11.68;5.35;;;;;;;;;;5049515;27;98682;-70
2023/10/09 15:36:47;;;;;;;14.35;5.22;;;;;;;;;;5066354;27;98621;-71
2023/10/09 15:39:14;;;;;;;8.98;5.05;;;;;;;;;;5055798;27;99873;-72
2023/10/09 15:41:41;;;;;;;12.50;5.15;;;;;;;;;;5068011;27;98226;-71
2023/10/09 15:44:08;;;;;;;10.98;5.00;;;;;;;;;;5047313;27;98904;-71
2023/10/09 15:46:34;;;;;;;12.98;5.50;;;;;;;;;;5053587;27;98424;-71
2023/10/09 15:49:01;;;;;;;12.82;4.80;;;;;;;;;;5058095;27;98893;-71
2023/10/09 15:51:28;;;;;;;9.10;4.63;;;;;;;;;;5055432;27;100776;-71
2023/10/09 15:53:56;;;;;;;12.63;5.18;;;;;;;;;;5066872;27;98401;-71
2023/10/09 15:56:23;;;;;;;19.15;5.07;;;;;;;;;;5048555;27;99460;-71
2023/10/09 15:58:53;;;;;;;11.50;5.22;;;;;;;;;;5053224;27;100236;-71
2023/10/09 16:01:20;;;;;;;9.60;5.07;;;;;;;;;;5063797;27;99581;-70
2023/10/09 16:03:47;;;;;;;10.18;4.70;;;;;;;;;;5057603;27;98534;-72
2023/10/09 16:06:15;;;;;;;9.10;5.15;;;;;;;;;;5047962;27;98268;-71
2023/10/09 16:08:45;;;;;;;7.05;4.70;;;;;;;;;;5056065;27;98424;-71
2023/10/09 16:11:23;;;;;;;13.82;5.18;;;;;;;;;;5048661;27;99962;-71
2023/10/09 16:13:50;;;;;;;12.98;4.90;;;;;;;;;;5045970;27;98413;-71
2023/10/09 16:16:26;;;;;;;12.32;4.93;;;;;;;;;;5051985;27;100037;-70
2023/10/09 16:18:55;;;;;;;8.82;5.22;;;;;;;;;;5062744;27;99078;-72
2023/10/09 16:21:25;;;;;;;12.90;5.00;;;;;;;;;;5053675;27;99457;-71
2023/10/09 16:23:53;;;;;;;16.15;5.22;;;;;;;;;;5063275;27;98638;-71
2023/10/09 16:26:24;;;;;;;17.58;5.28;;;;;;;;;;5056597;27;99410;-71
2023/10/09 16:28:53;;;;;;;10.32;5.47;;;;;;;;;;5046559;27;99976;-71
2023/10/09 16:31:20;;;;;;;16.20;5.10;;;;;;;;;;5047671;27;100207;-72
2023/10/09 16:33:50;;;;;;;12.18;6.10;;;;;;;;;;5050033;27;98249;-71